Time;durP1;ratioP1;P1;durP2;ratioP2;P2;SDS_P1;SDS_P2;PMS_P1;PMS_P2;Temp;Humidity;BMP_temperature;BMP_pressure;BME280_temperature;BME280_humidity;BME280_pressure;Samples;Min_cycle;Max_cycle;Signal;HPM_P1;HPM_P2
2022/12/17 13:06:11;;;;;;;10.20;7.90;;;22.60;53.40;;;;;;4894875;29;20565;-86
2022/12/17 13:08:40;;;;;;;6.97;6.23;;;22.60;53.50;;;;;;4898246;29;20442;-85
2022/12/17 13:11:12;;;;;;;9.50;7.70;;;22.50;53.40;;;;;;4912372;29;20462;-83
2022/12/17 13:13:54;;;;;;;10.10;8.03;;;22.50;53.50;;;;;;4912662;29;20558;-84
2022/12/17 13:16:35;;;;;;;9.20;7.70;;;22.50;53.40;;;;;;4909914;29;20492;-87
2022/12/17 13:19:18;;;;;;;8.53;7.60;;;22.50;53.50;;;;;;4916703;29;20484;-82
2022/12/17 13:21:48;;;;;;;8.37;7.50;;;22.60;53.30;;;;;;4919868;29;20472;-85
2022/12/17 13:24:25;;;;;;;12.00;7.87;;;22.60;53.40;;;;;;4919370;29;20464;-84
2022/12/17 13:26:54;;;;;;;10.13;7.50;;;22.60;53.30;;;;;;4916613;29;20588;-82
2022/12/17 13:29:27;;;;;;;7.87;7.07;;;22.60;53.30;;;;;;4918395;29;20461;-82
2022/12/17 13:32:09;;;;;;;17.00;8.30;;;22.50;53.20;;;;;;4909686;29;20549;-84
2022/12/17 13:34:46;;;;;;;8.67;7.37;;;22.50;53.10;;;;;;4919894;29;20481;-84
2022/12/17 13:37:27;;;;;;;8.03;7.23;;;22.50;53.10;;;;;;4907947;29;20545;-84
2022/12/17 13:40:03;;;;;;;10.30;8.33;;;22.50;53.00;;;;;;4905279;29;20487;-85
2022/12/17 13:42:34;;;;;;;9.30;8.20;;;22.40;53.00;;;;;;4914359;29;21012;-84
2022/12/17 13:45:05;;;;;;;11.70;8.00;;;22.40;53.00;;;;;;4920727;29;20538;-84
2022/12/17 13:47:37;;;;;;;11.07;8.00;;;22.40;53.00;;;;;;4913877;29;20509;-84
2022/12/17 13:50:20;;;;;;;9.33;7.73;;;22.30;53.00;;;;;;4910881;29;20829;-84
2022/12/17 13:53:11;;;;;;;8.50;7.47;;;22.30;53.20;;;;;;4919818;29;20497;-84
2022/12/17 13:55:39;;;;;;;12.57;7.67;;;22.30;53.20;;;;;;4915108;29;20458;-83
2022/12/17 13:58:24;;;;;;;9.57;7.50;;;22.20;53.30;;;;;;4914779;29;20493;-84
2022/12/17 14:01:04;;;;;;;10.00;7.97;;;22.20;53.40;;;;;;4919686;29;20953;-84
2022/12/17 14:03:33;;;;;;;15.00;7.90;;;22.20;53.50;;;;;;4909401;29;20872;-85
2022/12/17 14:06:22;;;;;;;9.00;7.80;;;22.20;53.50;;;;;;4917565;29;20815;-84
2022/12/17 14:08:54;;;;;;;8.90;8.10;;;22.10;53.50;;;;;;4918354;29;20491;-84
2022/12/17 14:14:17;;;;;;;9.50;7.67;;;22.10;53.60;;;;;;4918305;29;20632;-83
2022/12/17 14:16:45;;;;;;;8.20;7.40;;;22.00;53.70;;;;;;4903565;29;20588;-83
2022/12/17 14:19:21;;;;;;;11.57;7.80;;;22.00;53.80;;;;;;4915516;29;20492;-82
2022/12/17 14:21:49;;;;;;;10.03;7.90;;;22.00;53.70;;;;;;4916054;29;20870;-83
2022/12/17 14:24:25;;;;;;;10.00;8.10;;;22.00;53.60;;;;;;4919176;29;20463;-83
2022/12/17 14:26:55;;;;;;;10.50;7.87;;;22.00;53.60;;;;;;4919063;29;20771;-82
2022/12/17 14:29:24;;;;;;;9.40;7.87;;;22.00;53.60;;;;;;4906126;29;20946;-82
2022/12/17 14:31:54;;;;;;;8.77;7.87;;;22.00;53.50;;;;;;4900620;29;20441;-84
2022/12/17 14:34:22;;;;;;;9.00;8.00;;;22.00;53.30;;;;;;4937238;28;20530;-83
2022/12/17 14:36:56;;;;;;;8.60;7.80;;;22.00;53.30;;;;;;4949892;29;20454;-82
2022/12/17 14:39:28;;;;;;;10.10;9.13;;;22.00;53.20;;;;;;4957247;29;20513;-83
2022/12/17 14:44:52;;;;;;;15.97;8.33;;;22.00;53.20;;;;;;4957136;29;20474;-82
2022/12/17 14:47:23;;;;;;;8.60;7.83;;;21.90;53.10;;;;;;4957477;29;20481;-83
2022/12/17 14:50:01;;;;;;;9.77;8.07;;;21.90;53.10;;;;;;4957377;29;20463;-82
2022/12/17 14:52:37;;;;;;;9.33;8.50;;;21.80;53.10;;;;;;4957237;29;20440;-82
2022/12/17 14:59:24;;;;;;;9.90;7.40;;;21.80;53.00;;;;;;4879056;29;20459;-82
2022/12/17 15:01:53;;;;;;;9.20;7.70;;;21.70;53.10;;;;;;4879099;29;20470;-82
2022/12/17 15:04:23;;;;;;;8.03;7.23;;;21.60;53.20;;;;;;4957569;28;20847;-82
2022/12/17 15:06:54;;;;;;;8.50;7.77;;;21.60;53.30;;;;;;4956842;29;20523;-82
2022/12/17 15:09:23;;;;;;;9.40;8.50;;;21.50;53.30;;;;;;4956698;28;20574;-83
2022/12/17 15:11:52;;;;;;;8.27;7.57;;;21.50;53.40;;;;;;4955316;29;20481;-83
2022/12/17 15:14:20;;;;;;;8.53;7.80;;;21.40;53.40;;;;;;4953939;29;20470;-86
2022/12/17 15:16:49;;;;;;;8.47;7.63;;;21.30;53.50;;;;;;4959300;28;20871;-83
2022/12/17 15:19:18;;;;;;;8.53;7.73;;;21.30;53.50;;;;;;4953673;28;20498;-83
2022/12/17 15:21:46;;;;;;;9.43;8.53;;;21.20;53.50;;;;;;4953107;28;20463;-83
2022/12/17 15:24:18;;;;;;;8.90;8.10;;;21.20;53.50;;;;;;4951152;29;20471;-83
2022/12/17 15:43:11;;;;;;;10.03;9.03;;;20.80;54.00;;;;;;4938098;23;21024;-64
2022/12/17 15:45:40;;;;;;;9.00;8.10;;;20.80;54.00;;;;;;4934182;29;20466;-64
2022/12/17 15:48:09;;;;;;;10.00;9.10;;;20.80;54.00;;;;;;4935099;29;20482;-64
2022/12/17 15:50:37;;;;;;;9.00;8.10;;;20.80;53.90;;;;;;4930187;29;20550;-65
2022/12/17 15:53:06;;;;;;;10.33;9.30;;;20.80;53.90;;;;;;4930816;29;20490;-65
2022/12/17 15:55:34;;;;;;;9.30;8.50;;;20.80;53.70;;;;;;4933923;29;20466;-63
2022/12/17 15:58:03;;;;;;;10.03;9.03;;;20.80;53.70;;;;;;4929069;29;20475;-64
2022/12/17 16:00:32;;;;;;;11.47;10.27;;;20.80;53.70;;;;;;4932649;29;20803;-64
2022/12/17 16:03:01;;;;;;;9.07;8.27;;;20.80;53.50;;;;;;4929889;29;20477;-63
2022/12/17 16:05:29;;;;;;;10.30;8.97;;;20.80;53.70;;;;;;4931570;29;20458;-63
2022/12/17 16:08:01;;;;;;;10.97;9.67;;;20.80;54.00;;;;;;4934883;29;20493;-64
2022/12/17 16:10:30;;;;;;;10.80;9.43;;;20.80;54.20;;;;;;4930484;29;20449;-63
2022/12/17 16:12:58;;;;;;;11.67;10.50;;;20.70;54.40;;;;;;4934550;29;20513;-64
2022/12/17 16:15:26;;;;;;;10.73;9.40;;;20.70;54.60;;;;;;4936733;29;20446;-64
2022/12/17 16:17:56;;;;;;;11.50;8.50;;;20.70;54.90;;;;;;4936514;29;20772;-63
2022/12/17 16:20:24;;;;;;;12.77;9.60;;;20.70;55.00;;;;;;4934056;29;20533;-63
2022/12/17 16:22:53;;;;;;;10.83;9.43;;;20.60;55.00;;;;;;4928702;29;20804;-63
2022/12/17 16:25:22;;;;;;;10.23;9.23;;;20.60;55.10;;;;;;4929317;29;20499;-63
2022/12/17 16:27:50;;;;;;;12.23;9.40;;;20.60;55.10;;;;;;4927324;29;20462;-64
2022/12/17 16:30:18;;;;;;;10.83;9.73;;;20.60;55.20;;;;;;4925586;29;20459;-65
2022/12/17 16:32:46;;;;;;;10.57;9.40;;;20.60;55.20;;;;;;4932582;29;20460;-64
2022/12/17 16:35:16;;;;;;;11.37;10.23;;;20.50;55.30;;;;;;4931641;29;20573;-63
2022/12/17 16:37:44;;;;;;;12.93;9.43;;;20.50;55.30;;;;;;4933361;29;20536;-65
2022/12/17 16:40:12;;;;;;;12.23;9.57;;;20.50;55.40;;;;;;4927784;29;20494;-63
2022/12/17 16:42:40;;;;;;;11.13;9.60;;;20.50;55.60;;;;;;4926865;29;20496;-64
2022/12/17 16:45:10;;;;;;;13.20;9.43;;;20.40;55.60;;;;;;4925756;29;21013;-63
2022/12/17 16:47:38;;;;;;;18.70;11.03;;;20.40;55.60;;;;;;4925952;29;20465;-63
2022/12/17 16:50:07;;;;;;;12.80;9.40;;;20.40;55.50;;;;;;4925006;29;20485;-63
2022/12/17 16:52:36;;;;;;;14.80;10.30;;;20.40;55.50;;;;;;4931587;29;20468;-63
2022/12/17 16:55:05;;;;;;;13.30;10.40;;;20.40;55.40;;;;;;4930874;29;20462;-64
2022/12/17 16:57:33;;;;;;;15.30;11.67;;;20.40;55.30;;;;;;4925909;29;20458;-63
2022/12/17 17:00:01;;;;;;;13.23;9.27;;;20.40;55.30;;;;;;4925003;29;21159;-63
2022/12/17 17:02:29;;;;;;;13.70;10.00;;;20.40;55.20;;;;;;4930625;29;20581;-64
2022/12/17 17:04:57;;;;;;;13.27;10.00;;;20.40;55.10;;;;;;4928151;29;20501;-63
2022/12/17 17:07:25;;;;;;;11.30;10.10;;;20.40;55.10;;;;;;4934595;29;20560;-63
2022/12/17 17:09:56;;;;;;;14.03;10.43;;;20.40;54.90;;;;;;4933374;29;20499;-63
2022/12/17 17:12:25;;;;;;;15.13;10.50;;;20.50;54.80;;;;;;4931099;29;20450;-63
2022/12/17 17:14:53;;;;;;;13.60;10.00;;;20.50;54.70;;;;;;4932511;29;20453;-64
2022/12/17 17:17:22;;;;;;;12.27;10.83;;;20.40;54.60;;;;;;4932665;29;20768;-63
2022/12/17 17:20:11;;;;;;;11.63;9.20;;;20.40;54.50;;;;;;4929561;29;20472;-63
2022/12/17 17:22:39;;;;;;;12.20;9.60;;;20.40;54.50;;;;;;4929587;29;20457;-63
2022/12/17 17:25:09;;;;;;;12.43;9.50;;;20.40;54.50;;;;;;4931948;29;20466;-63
2022/12/17 17:27:37;;;;;;;11.70;10.20;;;20.40;54.40;;;;;;4932618;29;20477;-63
2022/12/17 17:30:06;;;;;;;12.10;10.00;;;20.40;54.40;;;;;;4931000;29;20965;-63
2022/12/17 17:32:34;;;;;;;13.97;10.17;;;20.30;54.40;;;;;;4933452;29;20549;-64
2022/12/17 17:35:03;;;;;;;11.73;10.00;;;20.30;54.50;;;;;;4933826;29;20533;-63
2022/12/17 17:37:31;;;;;;;12.40;9.80;;;20.30;54.60;;;;;;4928570;29;20778;-64
2022/12/17 17:39:59;;;;;;;15.07;9.47;;;20.30;54.60;;;;;;4934137;29;20493;-64
2022/12/17 17:42:28;;;;;;;9.23;8.33;;;20.30;54.60;;;;;;4930872;29;20565;-63
2022/12/17 17:44:57;;;;;;;13.60;11.00;;;20.20;54.70;;;;;;4929653;29;20479;-63
2022/12/17 17:47:25;;;;;;;11.03;9.33;;;20.20;54.80;;;;;;4933849;29;20463;-64
2022/12/17 17:49:53;;;;;;;11.80;9.77;;;20.20;54.80;;;;;;4933743;29;20473;-63
2022/12/17 17:52:21;;;;;;;14.87;10.57;;;20.20;54.80;;;;;;4932172;29;20462;-63
2022/12/17 17:54:49;;;;;;;9.87;8.90;;;20.20;54.80;;;;;;4932715;29;20468;-63
2022/12/17 17:57:17;;;;;;;11.60;8.70;;;20.20;54.80;;;;;;4935449;29;20487;-64
2022/12/17 17:59:47;;;;;;;11.37;9.77;;;20.20;54.80;;;;;;4937401;29;20453;-63
2022/12/17 18:02:15;;;;;;;11.50;9.30;;;20.20;54.70;;;;;;4937638;29;20784;-63
2022/12/17 18:04:43;;;;;;;12.77;9.93;;;20.20;54.60;;;;;;4937317;29;20485;-63
2022/12/17 18:07:11;;;;;;;17.90;9.60;;;20.30;54.50;;;;;;4937542;29;20449;-63
2022/12/17 18:09:55;;;;;;;11.33;9.53;;;20.20;54.40;;;;;;4934556;29;20485;-63
2022/12/17 18:15:12;;;;;;;13.13;10.77;;;20.20;54.30;;;;;;4933630;29;20488;-63
2022/12/17 18:17:46;;;;;;;10.27;9.20;;;20.30;54.20;;;;;;4937187;29;20913;-63
2022/12/17 18:20:16;;;;;;;11.20;9.23;;;20.30;54.10;;;;;;4926647;29;20456;-63
2022/12/17 18:22:45;;;;;;;10.17;8.83;;;20.30;54.00;;;;;;4933973;29;20458;-63
2022/12/17 18:25:14;;;;;;;11.60;9.70;;;20.30;53.90;;;;;;4936219;29;20468;-64
2022/12/17 18:27:43;;;;;;;10.53;8.87;;;20.30;53.90;;;;;;4935652;29;20521;-63
2022/12/17 18:30:15;;;;;;;12.90;9.47;;;20.30;53.80;;;;;;4931611;29;20952;-63
2022/12/17 18:32:43;;;;;;;14.60;9.73;;;20.20;53.80;;;;;;4936258;29;20539;-63
2022/12/17 18:35:11;;;;;;;10.37;9.00;;;20.20;53.80;;;;;;4936714;29;20457;-63
2022/12/17 18:37:39;;;;;;;12.50;11.00;;;20.20;53.70;;;;;;4934784;29;20449;-63
2022/12/17 18:40:09;;;;;;;10.70;9.60;;;20.20;53.70;;;;;;4936973;29;21143;-63
2022/12/17 18:45:24;;;;;;;11.90;10.70;;;20.10;53.70;;;;;;4935999;29;20463;-63
2022/12/17 18:47:52;;;;;;;10.33;9.40;;;20.10;53.70;;;;;;4936622;29;20461;-62
2022/12/17 18:50:20;;;;;;;11.27;9.97;;;20.10;53.70;;;;;;4936326;29;20484;-63
2022/12/17 18:52:48;;;;;;;10.67;8.83;;;20.00;53.70;;;;;;4931634;29;20457;-63
2022/12/17 18:55:17;;;;;;;11.20;9.43;;;20.00;53.70;;;;;;4940121;29;20465;-64
2022/12/17 18:57:46;;;;;;;11.20;10.20;;;20.00;53.80;;;;;;4937181;29;20460;-64
2022/12/17 19:00:14;;;;;;;10.73;9.73;;;20.00;53.80;;;;;;4935914;29;20464;-63
2022/12/17 19:02:44;;;;;;;10.67;9.67;;;20.00;53.80;;;;;;4930503;29;20465;-63
2022/12/17 19:05:12;;;;;;;10.70;9.63;;;20.00;53.80;;;;;;4934297;29;20448;-64
2022/12/17 19:07:40;;;;;;;10.80;9.90;;;20.00;53.80;;;;;;4936106;29;20462;-63
2022/12/17 19:10:10;;;;;;;10.13;9.10;;;20.10;53.70;;;;;;4934667;29;20569;-64
2022/12/17 19:12:38;;;;;;;13.83;10.23;;;20.10;53.60;;;;;;4936669;29;20445;-64
2022/12/17 19:15:07;;;;;;;9.80;8.90;;;20.10;53.50;;;;;;4935361;29;20787;-63
2022/12/17 19:17:36;;;;;;;12.80;10.60;;;20.10;53.50;;;;;;4925830;29;20543;-63
2022/12/17 19:20:06;;;;;;;10.63;9.27;;;20.10;53.40;;;;;;4934785;29;20902;-64
2022/12/17 19:22:34;;;;;;;10.73;9.83;;;20.10;53.40;;;;;;4933615;29;20557;-63
2022/12/17 19:25:02;;;;;;;10.63;9.53;;;20.20;53.40;;;;;;4931906;29;20956;-63
2022/12/17 19:27:31;;;;;;;11.30;10.10;;;20.20;53.30;;;;;;4935465;29;20838;-64
2022/12/17 19:29:59;;;;;;;10.17;9.27;;;20.20;53.30;;;;;;4930944;29;20795;-63
2022/12/17 19:32:27;;;;;;;11.00;9.50;;;20.20;53.40;;;;;;4933329;29;20445;-64
2022/12/17 19:34:55;;;;;;;11.93;10.70;;;20.20;53.40;;;;;;4935094;29;20464;-64
2022/12/17 19:37:25;;;;;;;10.33;9.27;;;20.20;53.50;;;;;;4935453;29;20920;-64
2022/12/17 19:39:53;;;;;;;8.73;8.03;;;20.20;53.50;;;;;;4935932;29;20485;-65
2022/12/17 19:42:27;;;;;;;10.43;9.43;;;20.20;53.50;;;;;;4935655;29;20489;-63
2022/12/17 19:45:04;;;;;;;9.93;9.13;;;20.20;53.60;;;;;;4935529;29;20785;-63
2022/12/17 19:47:33;;;;;;;11.33;10.13;;;20.10;53.60;;;;;;4935749;29;20772;-64
2022/12/17 19:50:01;;;;;;;11.17;10.17;;;20.10;53.60;;;;;;4934876;29;20477;-64
2022/12/17 19:52:30;;;;;;;10.97;9.87;;;20.10;53.60;;;;;;4929822;29;20453;-64
2022/12/17 19:54:58;;;;;;;10.00;9.17;;;20.10;53.60;;;;;;4925610;29;20464;-63
2022/12/17 19:57:26;;;;;;;11.30;10.00;;;20.10;53.60;;;;;;4935464;29;20815;-64
2022/12/17 19:59:55;;;;;;;11.53;10.43;;;20.00;53.60;;;;;;4934545;29;20544;-65
2022/12/17 20:02:23;;;;;;;10.37;9.30;;;20.00;53.70;;;;;;4935786;29;20450;-64
2022/12/17 20:04:59;;;;;;;10.40;9.40;;;20.00;53.70;;;;;;4934790;29;20572;-63
2022/12/17 20:07:27;;;;;;;9.30;8.40;;;20.00;53.70;;;;;;4935698;29;20890;-64
2022/12/17 20:09:56;;;;;;;10.60;9.60;;;20.00;53.70;;;;;;4931734;29;20498;-65
2022/12/17 20:12:25;;;;;;;10.17;9.13;;;20.00;53.70;;;;;;4934057;29;21420;-64
2022/12/17 20:14:53;;;;;;;10.83;9.70;;;20.00;53.70;;;;;;4934590;29;20449;-63
2022/12/17 20:17:21;;;;;;;10.77;9.83;;;20.00;53.60;;;;;;4935068;29;20552;-63
2022/12/17 20:19:52;;;;;;;10.63;9.73;;;20.00;53.50;;;;;;4931587;29;20442;-63
2022/12/17 20:22:20;;;;;;;11.40;10.30;;;20.10;53.50;;;;;;4933580;29;20961;-63
2022/12/17 20:24:48;;;;;;;10.10;9.20;;;20.10;53.40;;;;;;4933931;29;20457;-64
2022/12/17 20:27:18;;;;;;;11.13;10.00;;;20.10;53.30;;;;;;4928671;29;20479;-64
2022/12/17 20:29:46;;;;;;;10.00;9.10;;;20.10;53.30;;;;;;4932454;29;20544;-64
2022/12/17 20:32:18;;;;;;;9.90;9.00;;;20.10;53.20;;;;;;4933352;29;20634;-63
2022/12/17 20:34:46;;;;;;;11.67;10.57;;;20.10;53.10;;;;;;4929120;29;20854;-65
2022/12/17 20:37:14;;;;;;;10.07;9.27;;;20.10;53.10;;;;;;4934514;29;20895;-64
2022/12/17 20:39:42;;;;;;;10.50;9.60;;;20.10;53.00;;;;;;4937179;29;20483;-64
2022/12/17 20:42:10;;;;;;;10.50;9.50;;;20.10;53.00;;;;;;4936689;29;20503;-64
2022/12/17 20:44:40;;;;;;;10.70;9.70;;;20.10;52.90;;;;;;4933328;29;20460;-63
2022/12/17 20:47:08;;;;;;;10.23;9.40;;;20.10;53.00;;;;;;4934168;29;20441;-63
2022/12/17 20:49:36;;;;;;;10.33;9.40;;;20.10;53.00;;;;;;4931666;29;20574;-63
2022/12/17 20:52:04;;;;;;;10.70;9.70;;;20.10;52.90;;;;;;4933973;29;20571;-64
2022/12/17 20:54:32;;;;;;;10.10;8.80;;;20.10;53.00;;;;;;4934327;29;20462;-63
2022/12/17 20:57:01;;;;;;;11.43;10.30;;;20.00;53.00;;;;;;4934418;29;20555;-65
2022/12/17 20:59:29;;;;;;;10.17;9.27;;;20.00;53.10;;;;;;4934771;29;20537;-64
2022/12/17 21:01:58;;;;;;;10.27;9.33;;;20.00;53.10;;;;;;4938386;29;20955;-64
2022/12/17 21:04:27;;;;;;;10.07;9.20;;;20.00;53.30;;;;;;4934037;29;20449;-63
2022/12/17 21:06:55;;;;;;;11.17;10.07;;;20.00;53.40;;;;;;4934232;29;20759;-63
2022/12/17 21:09:24;;;;;;;11.17;10.17;;;20.00;53.40;;;;;;4934152;29;20453;-63
2022/12/17 21:11:52;;;;;;;9.20;8.40;;;20.00;53.40;;;;;;4933463;29;20963;-64
2022/12/17 21:14:20;;;;;;;10.23;9.40;;;20.00;53.40;;;;;;4933333;29;20953;-63
2022/12/17 21:16:48;;;;;;;10.77;9.67;;;20.00;53.40;;;;;;4928707;29;20499;-64
2022/12/17 21:19:19;;;;;;;11.70;10.60;;;20.00;53.40;;;;;;4933214;29;20504;-64
2022/12/17 21:21:55;;;;;;;11.33;10.33;;;20.10;53.40;;;;;;4931915;29;21013;-64
2022/12/17 21:24:23;;;;;;;10.13;9.17;;;20.10;53.30;;;;;;4932312;29;20453;-63
2022/12/17 21:26:51;;;;;;;10.63;9.60;;;20.10;53.30;;;;;;4933536;29;20534;-63
2022/12/17 21:29:19;;;;;;;11.50;10.30;;;20.10;53.30;;;;;;4928736;29;20440;-63
2022/12/17 21:31:49;;;;;;;10.67;9.73;;;20.10;53.30;;;;;;4934936;29;20568;-63
2022/12/17 21:34:21;;;;;;;9.90;9.00;;;20.10;53.20;;;;;;4937355;29;20810;-64
2022/12/17 21:36:49;;;;;;;11.23;10.20;;;20.10;53.20;;;;;;4937491;29;20758;-63
2022/12/17 21:39:18;;;;;;;10.47;9.50;;;20.10;53.20;;;;;;4937941;29;20448;-64
2022/12/17 21:44:36;;;;;;;10.63;9.67;;;20.10;53.10;;;;;;4935844;29;20448;-63
2022/12/17 21:47:04;;;;;;;10.83;9.80;;;20.10;53.10;;;;;;4938389;29;20463;-64
2022/12/17 21:49:34;;;;;;;10.83;9.83;;;20.10;53.10;;;;;;4936578;29;20545;-64
2022/12/17 21:52:02;;;;;;;11.20;10.20;;;20.10;53.10;;;;;;4931866;29;20486;-63
2022/12/17 21:54:30;;;;;;;9.70;8.90;;;20.00;53.10;;;;;;4937774;29;20464;-64
2022/12/17 21:56:58;;;;;;;12.03;10.67;;;20.00;53.00;;;;;;4937738;29;20446;-63
2022/12/17 21:59:26;;;;;;;11.03;9.93;;;20.00;53.10;;;;;;4937687;29;20956;-64
2022/12/17 22:01:55;;;;;;;10.70;9.70;;;20.00;53.10;;;;;;4937695;29;20466;-63
2022/12/17 22:04:25;;;;;;;10.33;9.50;;;20.00;53.10;;;;;;4936673;29;20454;-64
2022/12/17 22:06:55;;;;;;;10.03;9.13;;;20.00;53.10;;;;;;4937318;29;20461;-63
2022/12/17 22:09:35;;;;;;;10.23;9.33;;;19.90;53.10;;;;;;4936906;29;20469;-63
2022/12/17 22:15:10;;;;;;;11.17;10.17;;;19.90;53.20;;;;;;4937314;29;20765;-63
2022/12/17 22:17:41;;;;;;;11.03;9.93;;;19.90;53.20;;;;;;4937630;29;20461;-63
2022/12/17 22:20:15;;;;;;;11.77;10.67;;;19.90;53.20;;;;;;4935251;29;20460;-64
2022/12/17 22:22:45;;;;;;;10.50;9.60;;;19.90;53.20;;;;;;4936038;29;20450;-64
2022/12/17 22:25:13;;;;;;;9.97;8.90;;;20.00;53.10;;;;;;4937595;29;20449;-64
2022/12/17 22:27:42;;;;;;;11.80;10.70;;;20.00;53.10;;;;;;4935721;29;20447;-64
2022/12/17 22:33:03;;;;;;;11.70;10.23;;;20.00;53.10;;;;;;4939211;29;20480;-64
2022/12/17 22:35:52;;;;;;;11.07;10.00;;;20.00;53.00;;;;;;4933932;29;20802;-64
2022/12/17 22:38:41;;;;;;;11.83;10.67;;;20.00;52.80;;;;;;4936346;29;20457;-63
2022/12/17 22:44:35;;;;;;;10.57;9.67;;;20.00;52.70;;;;;;4935474;29;20453;-63
2022/12/17 22:47:19;;;;;;;10.77;9.67;;;20.00;52.70;;;;;;4937533;29;20466;-63
2022/12/17 22:49:49;;;;;;;9.60;8.70;;;20.00;52.70;;;;;;4934218;29;20545;-65
2022/12/17 22:52:17;;;;;;;11.33;10.13;;;20.00;52.70;;;;;;4932058;29;20521;-64
2022/12/17 22:54:48;;;;;;;10.77;9.63;;;20.00;52.80;;;;;;4935110;29;20458;-64
2022/12/17 22:57:17;;;;;;;9.80;8.80;;;20.00;52.80;;;;;;4936718;29;20456;-64
2022/12/17 23:00:09;;;;;;;10.93;9.83;;;20.00;52.80;;;;;;4934912;29;21318;-64
2022/12/17 23:02:37;;;;;;;10.60;9.67;;;20.00;53.00;;;;;;4936162;29;20454;-64
2022/12/17 23:05:06;;;;;;;9.87;8.90;;;20.00;53.00;;;;;;4929102;29;20451;-63
2022/12/17 23:07:34;;;;;;;12.13;11.03;;;20.00;53.00;;;;;;4937114;29;20484;-63
2022/12/17 23:10:05;;;;;;;10.50;9.60;;;20.00;53.00;;;;;;4936168;29;20455;-64
2022/12/17 23:12:51;;;;;;;10.77;9.77;;;20.00;53.00;;;;;;4936617;29;20512;-64
2022/12/17 23:15:21;;;;;;;11.10;10.00;;;20.00;53.10;;;;;;4936355;29;20454;-63
2022/12/17 23:17:50;;;;;;;10.80;9.70;;;19.90;53.10;;;;;;4929660;29;20858;-63
2022/12/17 23:20:18;;;;;;;11.37;10.17;;;19.90;53.20;;;;;;4933201;29;21046;-63
2022/12/17 23:22:47;;;;;;;11.13;10.03;;;19.90;53.20;;;;;;4933622;29;20930;-64
2022/12/17 23:25:18;;;;;;;9.80;8.90;;;19.90;53.20;;;;;;4936087;29;20441;-65
2022/12/17 23:27:47;;;;;;;10.10;9.10;;;19.90;53.30;;;;;;4933936;29;20449;-64
2022/12/17 23:30:16;;;;;;;10.47;9.37;;;19.90;53.20;;;;;;4929762;29;20528;-64
2022/12/17 23:32:44;;;;;;;10.90;9.90;;;19.90;53.20;;;;;;4936116;29;20592;-63
2022/12/17 23:35:13;;;;;;;10.03;9.03;;;19.90;53.20;;;;;;4930411;29;20441;-63
2022/12/17 23:37:41;;;;;;;10.63;9.50;;;19.90;53.10;;;;;;4936143;29;20549;-63
2022/12/17 23:40:11;;;;;;;9.50;8.60;;;20.00;53.10;;;;;;4935501;29;21348;-63
2022/12/17 23:42:40;;;;;;;10.30;9.33;;;20.00;53.00;;;;;;4935898;29;20530;-63
2022/12/17 23:45:10;;;;;;;11.00;9.90;;;20.00;53.00;;;;;;4932489;29;20449;-63
2022/12/17 23:47:40;;;;;;;10.67;9.57;;;20.00;53.00;;;;;;4935415;29;20548;-64
2022/12/17 23:50:10;;;;;;;10.63;9.53;;;20.00;52.90;;;;;;4926245;29;20473;-64
2022/12/17 23:52:38;;;;;;;9.90;8.90;;;20.00;52.90;;;;;;4933802;29;20461;-64
2022/12/17 23:55:07;;;;;;;11.03;9.87;;;20.00;52.90;;;;;;4934366;29;20487;-63
2022/12/17 23:57:35;;;;;;;9.93;8.93;;;20.00;52.80;;;;;;4935658;29;20456;-63
